sensor_id;sensor_type;location;lat;lon;timestamp;temperature;humidity
24226;DHT22;51462;51.422;5.514;2023-08-12T00:00:21;22.80;99.90
24226;DHT22;51462;51.422;5.514;2023-08-12T00:02:47;22.80;99.90
24226;DHT22;51462;51.422;5.514;2023-08-12T00:05:13;22.80;99.90
24226;DHT22;51462;51.422;5.514;2023-08-12T00:07:41;22.90;99.90
24226;DHT22;51462;51.422;5.514;2023-08-12T00:10:08;22.90;99.90
24226;DHT22;51462;51.422;5.514;2023-08-12T00:12:38;22.90;99.90
24226;DHT22;51462;51.422;5.514;2023-08-12T00:15:04;22.70;99.90
24226;DHT22;51462;51.422;5.514;2023-08-12T00:17:32;22.70;99.90
24226;DHT22;51462;51.422;5.514;2023-08-12T00:19:58;22.70;99.90
24226;DHT22;51462;51.422;5.514;2023-08-12T00:22:23;22.80;99.90
24226;DHT22;51462;51.422;5.514;2023-08-12T00:24:49;22.80;99.90
24226;DHT22;51462;51.422;5.514;2023-08-12T00:27:15;22.80;99.90
24226;DHT22;51462;51.422;5.514;2023-08-12T00:29:40;22.80;99.90
24226;DHT22;51462;51.422;5.514;2023-08-12T00:32:07;22.80;99.90
24226;DHT22;51462;51.422;5.514;2023-08-12T00:34:33;22.70;99.90
24226;DHT22;51462;51.422;5.514;2023-08-12T00:36:59;22.60;99.90
24226;DHT22;51462;51.422;5.514;2023-08-12T00:39:24;22.60;99.90
24226;DHT22;51462;51.422;5.514;2023-08-12T00:41:50;22.50;99.90
24226;DHT22;51462;51.422;5.514;2023-08-12T00:44:16;22.50;99.90
24226;DHT22;51462;51.422;5.514;2023-08-12T00:46:42;22.60;99.90
24226;DHT22;51462;51.422;5.514;2023-08-12T00:49:09;22.60;99.90
24226;DHT22;51462;51.422;5.514;2023-08-12T00:51:35;22.60;99.90
24226;DHT22;51462;51.422;5.514;2023-08-12T00:54:05;22.60;99.90
24226;DHT22;51462;51.422;5.514;2023-08-12T00:56:31;22.60;99.90
24226;DHT22;51462;51.422;5.514;2023-08-12T00:58:59;22.40;99.90
24226;DHT22;51462;51.422;5.514;2023-08-12T01:01:25;22.50;99.90
24226;DHT22;51462;51.422;5.514;2023-08-12T01:03:52;22.40;99.90
24226;DHT22;51462;51.422;5.514;2023-08-12T01:06:17;22.40;99.90
24226;DHT22;51462;51.422;5.514;2023-08-12T01:08:43;22.40;99.90
24226;DHT22;51462;51.422;5.514;2023-08-12T01:14:05;22.30;99.90
24226;DHT22;51462;51.422;5.514;2023-08-12T01:16:34;22.30;99.90
24226;DHT22;51462;51.422;5.514;2023-08-12T01:19:04;22.30;99.90
24226;DHT22;51462;51.422;5.514;2023-08-12T01:21:31;22.30;99.90
24226;DHT22;51462;51.422;5.514;2023-08-12T01:23:58;22.30;99.90
24226;DHT22;51462;51.422;5.514;2023-08-12T01:26:23;22.20;99.90
24226;DHT22;51462;51.422;5.514;2023-08-12T01:28:49;22.20;99.90
24226;DHT22;51462;51.422;5.514;2023-08-12T01:31:31;22.20;99.90
24226;DHT22;51462;51.422;5.514;2023-08-12T01:34:06;22.20;99.90
24226;DHT22;51462;51.422;5.514;2023-08-12T01:36:36;22.20;99.90
24226;DHT22;51462;51.422;5.514;2023-08-12T01:39:05;22.10;99.90
24226;DHT22;51462;51.422;5.514;2023-08-12T01:41:31;22.20;99.90
24226;DHT22;51462;51.422;5.514;2023-08-12T01:43:57;22.20;99.90
24226;DHT22;51462;51.422;5.514;2023-08-12T01:46:23;22.20;99.90
24226;DHT22;51462;51.422;5.514;2023-08-12T01:48:48;22.10;99.90
24226;DHT22;51462;51.422;5.514;2023-08-12T01:51:14;22.10;99.90
24226;DHT22;51462;51.422;5.514;2023-08-12T01:53:40;22.20;99.90
24226;DHT22;51462;51.422;5.514;2023-08-12T01:56:05;22.20;99.90
24226;DHT22;51462;51.422;5.514;2023-08-12T01:58:31;22.20;99.90
24226;DHT22;51462;51.422;5.514;2023-08-12T02:00:56;22.10;99.90
24226;DHT22;51462;51.422;5.514;2023-08-12T02:03:22;22.10;99.90
24226;DHT22;51462;51.422;5.514;2023-08-12T02:05:47;22.10;99.90
24226;DHT22;51462;51.422;5.514;2023-08-12T02:08:13;22.00;99.90
24226;DHT22;51462;51.422;5.514;2023-08-12T02:10:39;21.90;99.90
24226;DHT22;51462;51.422;5.514;2023-08-12T02:13:04;22.00;99.90
24226;DHT22;51462;51.422;5.514;2023-08-12T02:15:30;22.00;99.90
24226;DHT22;51462;51.422;5.514;2023-08-12T02:17:56;22.00;99.90
24226;DHT22;51462;51.422;5.514;2023-08-12T02:20:22;22.10;99.90
24226;DHT22;51462;51.422;5.514;2023-08-12T02:22:47;22.10;99.90
24226;DHT22;51462;51.422;5.514;2023-08-12T02:25:13;22.10;99.90
24226;DHT22;51462;51.422;5.514;2023-08-12T02:27:38;22.10;99.90
24226;DHT22;51462;51.422;5.514;2023-08-12T02:30:06;22.00;99.90
24226;DHT22;51462;51.422;5.514;2023-08-12T02:32:32;22.00;99.90
24226;DHT22;51462;51.422;5.514;2023-08-12T02:34:58;22.00;99.90
24226;DHT22;51462;51.422;5.514;2023-08-12T02:37:24;22.00;99.90
24226;DHT22;51462;51.422;5.514;2023-08-12T02:39:49;22.00;99.90
24226;DHT22;51462;51.422;5.514;2023-08-12T02:42:15;22.00;99.90
24226;DHT22;51462;51.422;5.514;2023-08-12T02:44:40;21.90;99.90
24226;DHT22;51462;51.422;5.514;2023-08-12T02:47:06;21.90;99.90
24226;DHT22;51462;51.422;5.514;2023-08-12T02:49:31;21.90;99.90
24226;DHT22;51462;51.422;5.514;2023-08-12T02:51:57;21.90;99.90
24226;DHT22;51462;51.422;5.514;2023-08-12T02:54:23;21.90;99.90
24226;DHT22;51462;51.422;5.514;2023-08-12T02:56:50;21.80;99.90
24226;DHT22;51462;51.422;5.514;2023-08-12T02:59:16;21.90;99.90
24226;DHT22;51462;51.422;5.514;2023-08-12T03:01:42;21.90;99.90
24226;DHT22;51462;51.422;5.514;2023-08-12T03:04:07;21.90;99.90
24226;DHT22;51462;51.422;5.514;2023-08-12T03:06:33;21.80;99.90
24226;DHT22;51462;51.422;5.514;2023-08-12T03:08:58;21.80;99.90
24226;DHT22;51462;51.422;5.514;2023-08-12T03:11:24;21.80;99.90
24226;DHT22;51462;51.422;5.514;2023-08-12T03:13:50;21.70;99.90
24226;DHT22;51462;51.422;5.514;2023-08-12T03:16:15;21.80;99.90
24226;DHT22;51462;51.422;5.514;2023-08-12T03:18:41;21.80;99.90
24226;DHT22;51462;51.422;5.514;2023-08-12T03:21:08;21.80;99.90
24226;DHT22;51462;51.422;5.514;2023-08-12T03:23:35;21.80;99.90
24226;DHT22;51462;51.422;5.514;2023-08-12T03:26:01;21.80;99.90
24226;DHT22;51462;51.422;5.514;2023-08-12T03:28:26;21.70;99.90
24226;DHT22;51462;51.422;5.514;2023-08-12T03:30:53;21.60;99.90
24226;DHT22;51462;51.422;5.514;2023-08-12T03:33:18;21.50;99.90
24226;DHT22;51462;51.422;5.514;2023-08-12T03:35:48;21.50;99.90
24226;DHT22;51462;51.422;5.514;2023-08-12T03:38:14;21.60;99.90
24226;DHT22;51462;51.422;5.514;2023-08-12T03:40:40;21.60;99.90
24226;DHT22;51462;51.422;5.514;2023-08-12T03:43:07;21.50;99.90
24226;DHT22;51462;51.422;5.514;2023-08-12T03:45:38;21.40;99.90
24226;DHT22;51462;51.422;5.514;2023-08-12T03:48:05;21.40;99.90
24226;DHT22;51462;51.422;5.514;2023-08-12T03:50:36;21.50;99.90
24226;DHT22;51462;51.422;5.514;2023-08-12T03:53:02;21.50;99.90
24226;DHT22;51462;51.422;5.514;2023-08-12T03:55:32;21.50;99.90
24226;DHT22;51462;51.422;5.514;2023-08-12T03:57:59;21.60;99.90
24226;DHT22;51462;51.422;5.514;2023-08-12T04:00:25;21.60;99.90
24226;DHT22;51462;51.422;5.514;2023-08-12T04:02:51;21.50;99.90
24226;DHT22;51462;51.422;5.514;2023-08-12T04:05:16;21.60;99.90
24226;DHT22;51462;51.422;5.514;2023-08-12T04:07:42;21.60;99.90
24226;DHT22;51462;51.422;5.514;2023-08-12T04:10:08;21.60;99.90
24226;DHT22;51462;51.422;5.514;2023-08-12T04:12:34;21.60;99.90
24226;DHT22;51462;51.422;5.514;2023-08-12T04:15:00;21.60;99.90
24226;DHT22;51462;51.422;5.514;2023-08-12T04:17:30;21.60;99.90
24226;DHT22;51462;51.422;5.514;2023-08-12T04:19:55;21.60;99.90
24226;DHT22;51462;51.422;5.514;2023-08-12T04:22:21;21.60;99.90
24226;DHT22;51462;51.422;5.514;2023-08-12T04:24:46;21.50;99.90
24226;DHT22;51462;51.422;5.514;2023-08-12T04:27:12;21.40;99.90
24226;DHT22;51462;51.422;5.514;2023-08-12T04:29:37;21.40;99.90
24226;DHT22;51462;51.422;5.514;2023-08-12T04:32:03;21.40;99.90
24226;DHT22;51462;51.422;5.514;2023-08-12T04:34:29;21.50;99.90
24226;DHT22;51462;51.422;5.514;2023-08-12T04:36:55;21.30;99.90
24226;DHT22;51462;51.422;5.514;2023-08-12T04:39:20;21.40;99.90
24226;DHT22;51462;51.422;5.514;2023-08-12T04:41:47;21.30;99.90
24226;DHT22;51462;51.422;5.514;2023-08-12T04:44:13;21.30;99.90
24226;DHT22;51462;51.422;5.514;2023-08-12T04:46:39;21.40;99.90
24226;DHT22;51462;51.422;5.514;2023-08-12T04:49:04;21.40;99.90
24226;DHT22;51462;51.422;5.514;2023-08-12T04:51:30;21.40;99.90
24226;DHT22;51462;51.422;5.514;2023-08-12T04:53:56;21.30;99.90
24226;DHT22;51462;51.422;5.514;2023-08-12T04:56:23;21.30;99.90
24226;DHT22;51462;51.422;5.514;2023-08-12T04:58:49;21.20;99.90
24226;DHT22;51462;51.422;5.514;2023-08-12T05:01:15;21.20;99.90
24226;DHT22;51462;51.422;5.514;2023-08-12T05:03:41;21.10;99.90
24226;DHT22;51462;51.422;5.514;2023-08-12T05:06:06;21.10;99.90
24226;DHT22;51462;51.422;5.514;2023-08-12T05:08:32;20.90;99.90
24226;DHT22;51462;51.422;5.514;2023-08-12T05:10:58;21.20;99.90
24226;DHT22;51462;51.422;5.514;2023-08-12T05:13:24;21.30;99.90
24226;DHT22;51462;51.422;5.514;2023-08-12T05:15:50;21.30;99.90
24226;DHT22;51462;51.422;5.514;2023-08-12T05:18:16;21.40;99.90
24226;DHT22;51462;51.422;5.514;2023-08-12T05:20:42;21.50;99.90
24226;DHT22;51462;51.422;5.514;2023-08-12T05:23:08;21.40;99.90
24226;DHT22;51462;51.422;5.514;2023-08-12T05:25:34;21.30;99.90
24226;DHT22;51462;51.422;5.514;2023-08-12T05:27:59;21.20;99.90
24226;DHT22;51462;51.422;5.514;2023-08-12T05:30:25;21.10;99.90
24226;DHT22;51462;51.422;5.514;2023-08-12T05:32:50;21.20;99.90
24226;DHT22;51462;51.422;5.514;2023-08-12T05:35:16;21.30;99.90
24226;DHT22;51462;51.422;5.514;2023-08-12T05:37:42;21.30;99.90
24226;DHT22;51462;51.422;5.514;2023-08-12T05:40:10;21.20;99.90
24226;DHT22;51462;51.422;5.514;2023-08-12T05:42:36;21.10;99.90
24226;DHT22;51462;51.422;5.514;2023-08-12T05:45:03;21.10;99.90
24226;DHT22;51462;51.422;5.514;2023-08-12T05:47:29;21.20;99.90
24226;DHT22;51462;51.422;5.514;2023-08-12T05:49:55;21.20;99.90
24226;DHT22;51462;51.422;5.514;2023-08-12T05:52:20;21.30;99.90
24226;DHT22;51462;51.422;5.514;2023-08-12T05:54:46;21.20;99.90
24226;DHT22;51462;51.422;5.514;2023-08-12T05:57:12;21.20;99.90
24226;DHT22;51462;51.422;5.514;2023-08-12T05:59:37;21.20;99.90
24226;DHT22;51462;51.422;5.514;2023-08-12T06:02:03;21.10;99.90
24226;DHT22;51462;51.422;5.514;2023-08-12T06:04:29;21.00;99.90
24226;DHT22;51462;51.422;5.514;2023-08-12T06:06:55;21.00;99.90
24226;DHT22;51462;51.422;5.514;2023-08-12T06:09:21;21.10;99.90
24226;DHT22;51462;51.422;5.514;2023-08-12T06:11:47;21.00;99.90
24226;DHT22;51462;51.422;5.514;2023-08-12T06:14:12;21.00;99.90
24226;DHT22;51462;51.422;5.514;2023-08-12T06:16:38;21.10;99.90
24226;DHT22;51462;51.422;5.514;2023-08-12T06:19:04;21.20;99.90
24226;DHT22;51462;51.422;5.514;2023-08-12T06:21:29;21.10;99.90
24226;DHT22;51462;51.422;5.514;2023-08-12T06:23:55;21.00;99.90
24226;DHT22;51462;51.422;5.514;2023-08-12T06:26:21;20.90;99.90
24226;DHT22;51462;51.422;5.514;2023-08-12T06:28:47;20.80;99.90
24226;DHT22;51462;51.422;5.514;2023-08-12T06:31:12;20.90;99.90
24226;DHT22;51462;51.422;5.514;2023-08-12T06:33:38;21.00;99.90
24226;DHT22;51462;51.422;5.514;2023-08-12T06:36:04;21.00;99.90
24226;DHT22;51462;51.422;5.514;2023-08-12T06:38:29;20.90;99.90
24226;DHT22;51462;51.422;5.514;2023-08-12T06:40:55;20.90;99.90
24226;DHT22;51462;51.422;5.514;2023-08-12T06:43:21;21.00;99.90
24226;DHT22;51462;51.422;5.514;2023-08-12T06:45:46;21.10;99.90
24226;DHT22;51462;51.422;5.514;2023-08-12T06:48:12;21.00;99.90
24226;DHT22;51462;51.422;5.514;2023-08-12T06:50:37;21.10;99.90
24226;DHT22;51462;51.422;5.514;2023-08-12T06:53:03;21.10;99.90
24226;DHT22;51462;51.422;5.514;2023-08-12T06:55:29;21.00;99.90
24226;DHT22;51462;51.422;5.514;2023-08-12T06:57:54;21.10;99.90
24226;DHT22;51462;51.422;5.514;2023-08-12T07:00:20;21.10;99.90
24226;DHT22;51462;51.422;5.514;2023-08-12T07:02:46;21.10;99.90
24226;DHT22;51462;51.422;5.514;2023-08-12T07:05:11;21.10;99.90
24226;DHT22;51462;51.422;5.514;2023-08-12T07:07:37;21.10;99.90
24226;DHT22;51462;51.422;5.514;2023-08-12T07:10:03;21.00;99.90
24226;DHT22;51462;51.422;5.514;2023-08-12T07:12:29;21.00;99.90
24226;DHT22;51462;51.422;5.514;2023-08-12T07:14:55;21.00;99.90
24226;DHT22;51462;51.422;5.514;2023-08-12T07:17:21;21.00;99.90
24226;DHT22;51462;51.422;5.514;2023-08-12T07:19:47;21.00;99.90
24226;DHT22;51462;51.422;5.514;2023-08-12T07:22:13;20.90;99.90
24226;DHT22;51462;51.422;5.514;2023-08-12T07:24:38;20.90;99.90
24226;DHT22;51462;51.422;5.514;2023-08-12T07:27:04;21.00;99.90
24226;DHT22;51462;51.422;5.514;2023-08-12T07:29:30;21.00;99.90
24226;DHT22;51462;51.422;5.514;2023-08-12T07:31:56;21.00;99.90
24226;DHT22;51462;51.422;5.514;2023-08-12T07:34:21;21.00;99.90
24226;DHT22;51462;51.422;5.514;2023-08-12T07:36:47;20.90;99.90
24226;DHT22;51462;51.422;5.514;2023-08-12T07:39:13;20.80;99.90
24226;DHT22;51462;51.422;5.514;2023-08-12T07:41:38;20.80;99.90
24226;DHT22;51462;51.422;5.514;2023-08-12T07:44:04;20.80;99.90
24226;DHT22;51462;51.422;5.514;2023-08-12T07:46:30;20.80;99.90
24226;DHT22;51462;51.422;5.514;2023-08-12T07:48:56;20.80;99.90
24226;DHT22;51462;51.422;5.514;2023-08-12T07:51:22;20.90;99.90
24226;DHT22;51462;51.422;5.514;2023-08-12T07:53:48;20.80;99.90
24226;DHT22;51462;51.422;5.514;2023-08-12T07:56:13;20.80;99.90
24226;DHT22;51462;51.422;5.514;2023-08-12T07:58:39;20.90;99.90
24226;DHT22;51462;51.422;5.514;2023-08-12T08:01:04;20.90;99.90
24226;DHT22;51462;51.422;5.514;2023-08-12T08:03:30;20.90;99.90
24226;DHT22;51462;51.422;5.514;2023-08-12T08:05:56;20.90;99.90
24226;DHT22;51462;51.422;5.514;2023-08-12T08:08:22;21.00;99.90
24226;DHT22;51462;51.422;5.514;2023-08-12T08:10:47;20.90;99.90
24226;DHT22;51462;51.422;5.514;2023-08-12T08:13:13;20.90;99.90
24226;DHT22;51462;51.422;5.514;2023-08-12T08:15:38;20.80;99.90
24226;DHT22;51462;51.422;5.514;2023-08-12T08:18:04;20.80;99.90
24226;DHT22;51462;51.422;5.514;2023-08-12T08:20:30;20.90;99.90
24226;DHT22;51462;51.422;5.514;2023-08-12T08:22:56;21.00;99.90
24226;DHT22;51462;51.422;5.514;2023-08-12T08:25:22;20.90;99.90
24226;DHT22;51462;51.422;5.514;2023-08-12T08:27:48;20.90;99.90
24226;DHT22;51462;51.422;5.514;2023-08-12T08:30:13;20.70;99.90
24226;DHT22;51462;51.422;5.514;2023-08-12T08:32:39;20.70;99.90
24226;DHT22;51462;51.422;5.514;2023-08-12T08:35:05;20.70;99.90
24226;DHT22;51462;51.422;5.514;2023-08-12T08:37:30;20.70;99.90
24226;DHT22;51462;51.422;5.514;2023-08-12T08:39:56;20.80;99.90
24226;DHT22;51462;51.422;5.514;2023-08-12T08:42:24;20.80;99.90
24226;DHT22;51462;51.422;5.514;2023-08-12T08:44:53;20.80;99.90
24226;DHT22;51462;51.422;5.514;2023-08-12T08:47:26;20.90;99.90
24226;DHT22;51462;51.422;5.514;2023-08-12T08:49:56;21.20;99.90
24226;DHT22;51462;51.422;5.514;2023-08-12T08:52:23;21.00;99.90
24226;DHT22;51462;51.422;5.514;2023-08-12T08:54:52;21.10;99.90
24226;DHT22;51462;51.422;5.514;2023-08-12T08:57:18;21.10;99.90
24226;DHT22;51462;51.422;5.514;2023-08-12T08:59:45;21.10;99.90
24226;DHT22;51462;51.422;5.514;2023-08-12T09:02:16;21.20;99.90
24226;DHT22;51462;51.422;5.514;2023-08-12T09:04:46;21.10;99.90
24226;DHT22;51462;51.422;5.514;2023-08-12T09:07:12;21.10;99.90
24226;DHT22;51462;51.422;5.514;2023-08-12T09:09:45;21.30;99.90
24226;DHT22;51462;51.422;5.514;2023-08-12T09:12:14;21.30;99.90
24226;DHT22;51462;51.422;5.514;2023-08-12T09:14:44;21.40;99.90
24226;DHT22;51462;51.422;5.514;2023-08-12T09:17:09;21.30;99.90
24226;DHT22;51462;51.422;5.514;2023-08-12T09:19:35;21.20;99.90
24226;DHT22;51462;51.422;5.514;2023-08-12T09:22:03;21.20;99.90
24226;DHT22;51462;51.422;5.514;2023-08-12T09:24:29;21.20;99.90
24226;DHT22;51462;51.422;5.514;2023-08-12T09:26:55;21.10;99.90
24226;DHT22;51462;51.422;5.514;2023-08-12T09:29:32;21.10;99.90
24226;DHT22;51462;51.422;5.514;2023-08-12T09:32:19;21.10;99.90
24226;DHT22;51462;51.422;5.514;2023-08-12T09:34:49;21.10;99.90
24226;DHT22;51462;51.422;5.514;2023-08-12T09:37:15;21.10;99.90
24226;DHT22;51462;51.422;5.514;2023-08-12T09:39:41;21.20;99.90
24226;DHT22;51462;51.422;5.514;2023-08-12T09:42:07;21.20;99.90
24226;DHT22;51462;51.422;5.514;2023-08-12T09:44:39;21.20;99.90
24226;DHT22;51462;51.422;5.514;2023-08-12T09:47:08;21.20;99.90
24226;DHT22;51462;51.422;5.514;2023-08-12T09:49:34;21.20;99.90
24226;DHT22;51462;51.422;5.514;2023-08-12T09:52:01;21.20;99.90
24226;DHT22;51462;51.422;5.514;2023-08-12T09:54:28;21.20;99.90
24226;DHT22;51462;51.422;5.514;2023-08-12T09:56:58;21.40;99.90
24226;DHT22;51462;51.422;5.514;2023-08-12T09:59:30;21.50;99.90
24226;DHT22;51462;51.422;5.514;2023-08-12T10:01:57;21.50;99.90
24226;DHT22;51462;51.422;5.514;2023-08-12T10:04:28;21.60;99.90
24226;DHT22;51462;51.422;5.514;2023-08-12T10:06:55;21.50;99.90
24226;DHT22;51462;51.422;5.514;2023-08-12T10:09:21;21.50;99.90
24226;DHT22;51462;51.422;5.514;2023-08-12T10:11:47;21.50;99.90
24226;DHT22;51462;51.422;5.514;2023-08-12T10:14:13;21.40;99.90
24226;DHT22;51462;51.422;5.514;2023-08-12T10:16:42;21.40;99.90
24226;DHT22;51462;51.422;5.514;2023-08-12T10:19:11;21.40;99.90
24226;DHT22;51462;51.422;5.514;2023-08-12T10:21:37;21.30;99.90
24226;DHT22;51462;51.422;5.514;2023-08-12T10:24:05;21.30;99.90
24226;DHT22;51462;51.422;5.514;2023-08-12T10:26:32;21.30;99.90
24226;DHT22;51462;51.422;5.514;2023-08-12T10:28:59;21.30;99.90
24226;DHT22;51462;51.422;5.514;2023-08-12T10:31:27;21.30;99.90
24226;DHT22;51462;51.422;5.514;2023-08-12T10:33:54;21.40;99.90
24226;DHT22;51462;51.422;5.514;2023-08-12T10:36:21;21.30;99.90
24226;DHT22;51462;51.422;5.514;2023-08-12T10:38:47;21.40;99.90
24226;DHT22;51462;51.422;5.514;2023-08-12T10:41:20;21.50;99.90
24226;DHT22;51462;51.422;5.514;2023-08-12T10:44:00;21.50;99.90
24226;DHT22;51462;51.422;5.514;2023-08-12T10:46:33;21.50;99.90
24226;DHT22;51462;51.422;5.514;2023-08-12T10:49:05;21.60;99.90
24226;DHT22;51462;51.422;5.514;2023-08-12T10:51:41;21.60;99.90
24226;DHT22;51462;51.422;5.514;2023-08-12T10:54:16;21.70;99.90
24226;DHT22;51462;51.422;5.514;2023-08-12T10:57:14;21.80;99.90
24226;DHT22;51462;51.422;5.514;2023-08-12T11:04:53;21.80;99.90
24226;DHT22;51462;51.422;5.514;2023-08-12T11:07:21;21.80;99.90
24226;DHT22;51462;51.422;5.514;2023-08-12T11:09:51;21.90;99.90
24226;DHT22;51462;51.422;5.514;2023-08-12T11:12:21;21.90;99.90
24226;DHT22;51462;51.422;5.514;2023-08-12T11:14:57;22.10;99.90
24226;DHT22;51462;51.422;5.514;2023-08-12T11:17:36;22.20;99.90
24226;DHT22;51462;51.422;5.514;2023-08-12T11:20:04;22.20;99.90
24226;DHT22;51462;51.422;5.514;2023-08-12T11:22:32;22.10;99.90
24226;DHT22;51462;51.422;5.514;2023-08-12T11:24:59;22.10;99.90
24226;DHT22;51462;51.422;5.514;2023-08-12T11:27:25;22.30;99.90
24226;DHT22;51462;51.422;5.514;2023-08-12T11:29:50;22.30;99.90
24226;DHT22;51462;51.422;5.514;2023-08-12T11:32:20;22.30;99.90
24226;DHT22;51462;51.422;5.514;2023-08-12T11:34:46;22.20;99.90
24226;DHT22;51462;51.422;5.514;2023-08-12T11:37:11;21.90;99.90
24226;DHT22;51462;51.422;5.514;2023-08-12T11:39:37;21.80;99.90
24226;DHT22;51462;51.422;5.514;2023-08-12T11:42:04;21.90;99.90
24226;DHT22;51462;51.422;5.514;2023-08-12T11:44:29;21.90;99.90
24226;DHT22;51462;51.422;5.514;2023-08-12T11:46:55;22.20;99.90
24226;DHT22;51462;51.422;5.514;2023-08-12T11:49:21;22.00;99.90
24226;DHT22;51462;51.422;5.514;2023-08-12T11:51:47;22.20;99.90
24226;DHT22;51462;51.422;5.514;2023-08-12T11:54:16;22.50;99.90
24226;DHT22;51462;51.422;5.514;2023-08-12T11:56:42;22.60;99.90
24226;DHT22;51462;51.422;5.514;2023-08-12T11:59:08;22.70;99.90
24226;DHT22;51462;51.422;5.514;2023-08-12T12:01:34;22.60;99.90
24226;DHT22;51462;51.422;5.514;2023-08-12T12:04:03;22.40;99.90
24226;DHT22;51462;51.422;5.514;2023-08-12T12:06:47;22.40;99.90
24226;DHT22;51462;51.422;5.514;2023-08-12T12:09:15;22.40;99.90
24226;DHT22;51462;51.422;5.514;2023-08-12T12:11:44;22.20;99.90
24226;DHT22;51462;51.422;5.514;2023-08-12T12:14:10;22.10;99.90
24226;DHT22;51462;51.422;5.514;2023-08-12T12:16:43;22.30;99.90
24226;DHT22;51462;51.422;5.514;2023-08-12T12:19:19;22.40;99.90
24226;DHT22;51462;51.422;5.514;2023-08-12T12:21:50;22.30;99.90
24226;DHT22;51462;51.422;5.514;2023-08-12T12:24:16;22.60;99.90
24226;DHT22;51462;51.422;5.514;2023-08-12T12:26:43;22.80;99.90
24226;DHT22;51462;51.422;5.514;2023-08-12T12:29:09;23.00;99.90
24226;DHT22;51462;51.422;5.514;2023-08-12T12:31:37;23.00;99.90
24226;DHT22;51462;51.422;5.514;2023-08-12T12:34:03;23.20;99.90
24226;DHT22;51462;51.422;5.514;2023-08-12T12:36:32;23.30;99.90
24226;DHT22;51462;51.422;5.514;2023-08-12T12:38:58;23.60;99.90
24226;DHT22;51462;51.422;5.514;2023-08-12T12:41:23;23.70;99.90
24226;DHT22;51462;51.422;5.514;2023-08-12T12:43:49;23.80;99.90
24226;DHT22;51462;51.422;5.514;2023-08-12T12:46:15;24.00;99.90
24226;DHT22;51462;51.422;5.514;2023-08-12T12:48:42;24.30;99.90
24226;DHT22;51462;51.422;5.514;2023-08-12T12:51:08;24.30;99.90
24226;DHT22;51462;51.422;5.514;2023-08-12T12:53:33;24.50;99.90
24226;DHT22;51462;51.422;5.514;2023-08-12T12:55:59;24.50;99.90
24226;DHT22;51462;51.422;5.514;2023-08-12T12:58:32;24.60;99.90
24226;DHT22;51462;51.422;5.514;2023-08-12T13:00:59;24.60;99.90
24226;DHT22;51462;51.422;5.514;2023-08-12T13:03:25;24.90;99.90
24226;DHT22;51462;51.422;5.514;2023-08-12T13:05:51;25.20;99.90
24226;DHT22;51462;51.422;5.514;2023-08-12T13:08:16;25.10;99.90
24226;DHT22;51462;51.422;5.514;2023-08-12T13:10:42;25.30;99.90
24226;DHT22;51462;51.422;5.514;2023-08-12T13:13:07;25.30;99.90
24226;DHT22;51462;51.422;5.514;2023-08-12T13:15:34;25.40;99.90
24226;DHT22;51462;51.422;5.514;2023-08-12T13:18:00;25.70;99.90
24226;DHT22;51462;51.422;5.514;2023-08-12T13:20:25;26.30;99.90
24226;DHT22;51462;51.422;5.514;2023-08-12T13:22:51;26.60;99.90
24226;DHT22;51462;51.422;5.514;2023-08-12T13:25:16;26.40;99.90
24226;DHT22;51462;51.422;5.514;2023-08-12T13:27:42;26.50;99.90
24226;DHT22;51462;51.422;5.514;2023-08-12T13:30:09;27.00;99.90
24226;DHT22;51462;51.422;5.514;2023-08-12T13:32:36;26.80;99.90
24226;DHT22;51462;51.422;5.514;2023-08-12T13:35:03;26.70;99.90
24226;DHT22;51462;51.422;5.514;2023-08-12T13:37:29;26.60;99.90
24226;DHT22;51462;51.422;5.514;2023-08-12T13:39:54;26.10;99.90
24226;DHT22;51462;51.422;5.514;2023-08-12T13:42:20;26.30;99.90
24226;DHT22;51462;51.422;5.514;2023-08-12T13:44:45;26.40;99.90
24226;DHT22;51462;51.422;5.514;2023-08-12T13:47:11;26.30;99.90
24226;DHT22;51462;51.422;5.514;2023-08-12T13:49:37;26.30;99.90
24226;DHT22;51462;51.422;5.514;2023-08-12T13:52:02;25.90;99.90
24226;DHT22;51462;51.422;5.514;2023-08-12T13:54:28;25.60;99.90
24226;DHT22;51462;51.422;5.514;2023-08-12T13:56:53;25.40;99.90
24226;DHT22;51462;51.422;5.514;2023-08-12T13:59:19;25.40;99.90
24226;DHT22;51462;51.422;5.514;2023-08-12T14:01:45;25.60;99.90
24226;DHT22;51462;51.422;5.514;2023-08-12T14:04:10;26.90;99.90
24226;DHT22;51462;51.422;5.514;2023-08-12T14:06:36;26.30;99.90
24226;DHT22;51462;51.422;5.514;2023-08-12T14:09:02;25.40;99.90
24226;DHT22;51462;51.422;5.514;2023-08-12T14:11:27;25.20;99.90
24226;DHT22;51462;51.422;5.514;2023-08-12T14:13:53;26.90;99.90
24226;DHT22;51462;51.422;5.514;2023-08-12T14:16:19;27.80;99.90
24226;DHT22;51462;51.422;5.514;2023-08-12T14:18:44;26.80;99.90
24226;DHT22;51462;51.422;5.514;2023-08-12T14:21:10;25.90;99.90
24226;DHT22;51462;51.422;5.514;2023-08-12T14:23:35;25.50;99.90
24226;DHT22;51462;51.422;5.514;2023-08-12T14:26:01;25.80;99.90
24226;DHT22;51462;51.422;5.514;2023-08-12T14:28:27;25.80;99.90
24226;DHT22;51462;51.422;5.514;2023-08-12T14:30:53;25.50;99.90
24226;DHT22;51462;51.422;5.514;2023-08-12T14:33:19;25.60;99.90
24226;DHT22;51462;51.422;5.514;2023-08-12T14:35:44;26.80;99.90
24226;DHT22;51462;51.422;5.514;2023-08-12T14:38:10;26.70;99.90
24226;DHT22;51462;51.422;5.514;2023-08-12T14:40:36;26.40;99.90
24226;DHT22;51462;51.422;5.514;2023-08-12T14:43:01;25.80;99.90
24226;DHT22;51462;51.422;5.514;2023-08-12T14:45:27;25.70;99.90
24226;DHT22;51462;51.422;5.514;2023-08-12T14:47:52;25.80;99.90
24226;DHT22;51462;51.422;5.514;2023-08-12T14:50:18;25.70;99.90
24226;DHT22;51462;51.422;5.514;2023-08-12T14:52:43;25.70;99.90
24226;DHT22;51462;51.422;5.514;2023-08-12T14:55:09;26.20;99.90
24226;DHT22;51462;51.422;5.514;2023-08-12T14:57:35;26.40;99.90
24226;DHT22;51462;51.422;5.514;2023-08-12T15:00:01;26.50;99.90
24226;DHT22;51462;51.422;5.514;2023-08-12T15:02:27;26.30;99.90
24226;DHT22;51462;51.422;5.514;2023-08-12T15:04:53;26.20;99.90
24226;DHT22;51462;51.422;5.514;2023-08-12T15:07:19;26.00;99.90
24226;DHT22;51462;51.422;5.514;2023-08-12T15:09:46;25.70;99.90
24226;DHT22;51462;51.422;5.514;2023-08-12T15:12:12;25.70;99.90
24226;DHT22;51462;51.422;5.514;2023-08-12T15:14:37;25.60;99.90
24226;DHT22;51462;51.422;5.514;2023-08-12T15:17:03;26.00;99.90
24226;DHT22;51462;51.422;5.514;2023-08-12T15:19:28;26.20;99.90
24226;DHT22;51462;51.422;5.514;2023-08-12T15:21:54;26.10;99.90
24226;DHT22;51462;51.422;5.514;2023-08-12T15:24:19;26.10;99.90
24226;DHT22;51462;51.422;5.514;2023-08-12T15:26:45;26.00;99.90
24226;DHT22;51462;51.422;5.514;2023-08-12T15:29:11;25.90;99.90
24226;DHT22;51462;51.422;5.514;2023-08-12T15:31:37;26.30;99.90
24226;DHT22;51462;51.422;5.514;2023-08-12T15:34:03;26.90;99.90